Terminal Aerodrome Forecast
Issued by NWS

Home | Current Version | Previous Version | Text Only | Print | Product List | Glossary On
Versions: 1 2 3 4 5 6 7 8 9 10 11 12 13
992
FTUS46 KHNX 202330
TAFVIS
TAF
KVIS 202330Z 2100/2124 11012G22KT P6SM -RA OVC050
     FM210200 11012G20KT P6SM VCSH BKN050=

USA.gov is the U.S. government's official web portal to all federal, state and local government web resources and services.